| Date | Time | Temp. (oF) | Dew Point (oF) | Rel. Hum. (%) | Press. (in.) | Wind Dir. | Wind Speed (mph) | Hourly Rainfall (in.) |
|
|---|---|---|---|---|---|---|---|---|---|
| 1 | 12/06 | 00:00 | 34 | 23 | 65 | 30.34 | NNE | 6 | 0.00 |
| 2 | 12/05 | 23:00 | 35 | 24 | 65 | 30.32 | NNW | 3 | 0.00 |
| 3 | 12/05 | 22:00 | 37 | 23 | 59 | 30.31 | E | 5 | 0.00 |
| 4 | 12/05 | 21:00 | 37 | 22 | 56 | 30.31 | NNE | 8 | 0.00 |
| 5 | 12/05 | 20:00 | 38 | 23 | 55 | 30.30 | NE | 6 | 0.00 |
| 6 | 12/05 | 19:00 | 41 | 26 | 56 | 30.26 | NNE | 20 | 0.00 |
| 7 | 12/05 | 18:00 | 44 | 29 | 57 | 30.23 | NNW | 7 | 0.00 |
| 8 | 12/05 | 17:00 | 46 | 32 | 58 | 30.18 | NW | 8 | 0.00 |
| 9 | 12/05 | 16:00 | 48 | 32 | 54 | 30.14 | N | 15 | 0.00 |
| 10 | 12/05 | 15:00 | 51 | 33 | 52 | 30.12 | NW | 12 | 0.00 |
| 11 | 12/05 | 14:00 | 52 | 34 | 51 | 30.11 | NW | 10 | 0.00 |
| 12 | 12/05 | 13:00 | 53 | 34 | 50 | 30.11 | N | 15 | 0.00 |
| 13 | 12/05 | 12:00 | 52 | 38 | 61 | 30.13 | NW | 7 | 0.00 |
| 14 | 12/05 | 11:00 | 50 | 38 | 64 | 30.15 | N | 10 | 0.00 |
| 15 | 12/05 | 10:00 | 48 | 36 | 65 | 30.16 | WNW | 4 | 0.00 |
| 16 | 12/05 | 09:00 | 49 | 38 | 66 | 30.14 | S | 8 | 0.00 |
| 17 | 12/05 | 08:00 | 49 | 39 | 69 | 30.13 | WNW | 7 | 0.00 |
| 18 | 12/05 | 07:00 | 51 | 41 | 69 | 30.11 | NW | 9 | 0.00 |
| 19 | 12/05 | 06:00 | 52 | 45 | 79 | 30.07 | WSW | 4 | 0.00 |
| 20 | 12/05 | 05:00 | 53 | 45 | 76 | 30.04 | W | 2 | 0.00 |
| 21 | 12/05 | 04:00 | 54 | 52 | 95 | 30.04 | WNW | 4 | 0.00 |
| 22 | 12/05 | 03:00 | 58 | 54 | 87 | 30.01 | NE | 7 | 0.00 |
| 23 | 12/05 | 02:00 | 60 | 52 | 77 | 29.96 | SW | 7 | 0.00 |
| 24 | 12/05 | 01:00 | 60 | 52 | 77 | 29.96 | SW | 4 | 0.00 |